sensor_id;sensor_type;location;lat;lon;timestamp;P1;durP1;ratioP1;P2;durP2;ratioP2
39792;SDS011;26080;42.264;24.536;2022-10-16T00:00:41;1.73;;;1.08;;
39792;SDS011;26080;42.264;24.536;2022-10-16T00:03:08;1.30;;;1.02;;
39792;SDS011;26080;42.264;24.536;2022-10-16T00:05:39;0.70;;;0.70;;
39792;SDS011;26080;42.264;24.536;2022-10-16T00:08:06;1.27;;;1.17;;
39792;SDS011;26080;42.264;24.536;2022-10-16T00:10:31;0.60;;;0.60;;
39792;SDS011;26080;42.264;24.536;2022-10-16T00:12:57;1.08;;;0.98;;
39792;SDS011;26080;42.264;24.536;2022-10-16T00:15:22;1.08;;;0.82;;
39792;SDS011;26080;42.264;24.536;2022-10-16T00:17:47;1.85;;;0.85;;
39792;SDS011;26080;42.264;24.536;2022-10-16T00:20:13;1.20;;;0.85;;
39792;SDS011;26080;42.264;24.536;2022-10-16T00:22:38;1.85;;;1.33;;
39792;SDS011;26080;42.264;24.536;2022-10-16T00:25:05;0.85;;;0.85;;
39792;SDS011;26080;42.264;24.536;2022-10-16T00:27:30;4.63;;;1.25;;
39792;SDS011;26080;42.264;24.536;2022-10-16T00:29:55;0.60;;;0.50;;
39792;SDS011;26080;42.264;24.536;2022-10-16T00:32:21;1.45;;;1.02;;
39792;SDS011;26080;42.264;24.536;2022-10-16T00:34:46;1.48;;;1.38;;
39792;SDS011;26080;42.264;24.536;2022-10-16T00:37:12;6.70;;;1.13;;
39792;SDS011;26080;42.264;24.536;2022-10-16T00:39:38;1.10;;;1.00;;
39792;SDS011;26080;42.264;24.536;2022-10-16T00:42:03;11.15;;;1.52;;
39792;SDS011;26080;42.264;24.536;2022-10-16T00:44:42;0.70;;;0.70;;
39792;SDS011;26080;42.264;24.536;2022-10-16T00:47:24;1.45;;;1.05;;
39792;SDS011;26080;42.264;24.536;2022-10-16T00:49:52;1.38;;;1.17;;
39792;SDS011;26080;42.264;24.536;2022-10-16T00:52:23;5.82;;;1.00;;
39792;SDS011;26080;42.264;24.536;2022-10-16T00:54:49;1.27;;;0.85;;
39792;SDS011;26080;42.264;24.536;2022-10-16T00:57:15;1.40;;;1.10;;
39792;SDS011;26080;42.264;24.536;2022-10-16T00:59:41;1.75;;;0.85;;
39792;SDS011;26080;42.264;24.536;2022-10-16T01:02:08;2.65;;;1.58;;
39792;SDS011;26080;42.264;24.536;2022-10-16T01:04:37;1.40;;;1.25;;
39792;SDS011;26080;42.264;24.536;2022-10-16T01:07:28;3.35;;;1.58;;
39792;SDS011;26080;42.264;24.536;2022-10-16T01:15:47;0.98;;;0.88;;
39792;SDS011;26080;42.264;24.536;2022-10-16T01:20:45;0.50;;;0.50;;
39792;SDS011;26080;42.264;24.536;2022-10-16T01:23:51;7.68;;;2.42;;
39792;SDS011;26080;42.264;24.536;2022-10-16T01:31:19;0.93;;;0.80;;
39792;SDS011;26080;42.264;24.536;2022-10-16T01:36:59;0.40;;;0.40;;
39792;SDS011;26080;42.264;24.536;2022-10-16T01:39:31;1.05;;;0.70;;
39792;SDS011;26080;42.264;24.536;2022-10-16T01:42:11;0.85;;;0.80;;
39792;SDS011;26080;42.264;24.536;2022-10-16T01:44:41;3.08;;;1.65;;
39792;SDS011;26080;42.264;24.536;2022-10-16T01:47:09;2.47;;;1.67;;
39792;SDS011;26080;42.264;24.536;2022-10-16T01:49:37;3.67;;;1.42;;
39792;SDS011;26080;42.264;24.536;2022-10-16T01:52:06;1.77;;;1.67;;
39792;SDS011;26080;42.264;24.536;2022-10-16T01:54:36;1.08;;;0.93;;
39792;SDS011;26080;42.264;24.536;2022-10-16T01:57:06;1.90;;;1.55;;
39792;SDS011;26080;42.264;24.536;2022-10-16T01:59:35;2.20;;;1.45;;
39792;SDS011;26080;42.264;24.536;2022-10-16T02:02:09;3.75;;;1.38;;
39792;SDS011;26080;42.264;24.536;2022-10-16T02:04:38;1.05;;;0.93;;
39792;SDS011;26080;42.264;24.536;2022-10-16T02:07:07;2.35;;;0.85;;
39792;SDS011;26080;42.264;24.536;2022-10-16T02:09:33;3.30;;;1.38;;
39792;SDS011;26080;42.264;24.536;2022-10-16T02:12:01;2.33;;;1.60;;
39792;SDS011;26080;42.264;24.536;2022-10-16T02:16:59;2.13;;;1.10;;
39792;SDS011;26080;42.264;24.536;2022-10-16T02:19:24;1.17;;;1.00;;
39792;SDS011;26080;42.264;24.536;2022-10-16T02:21:51;2.90;;;1.73;;
39792;SDS011;26080;42.264;24.536;2022-10-16T02:27:19;1.80;;;1.02;;
39792;SDS011;26080;42.264;24.536;2022-10-16T02:29:53;1.63;;;1.13;;
39792;SDS011;26080;42.264;24.536;2022-10-16T02:32:25;2.47;;;0.97;;
39792;SDS011;26080;42.264;24.536;2022-10-16T02:34:56;11.98;;;1.10;;
39792;SDS011;26080;42.264;24.536;2022-10-16T02:37:24;0.93;;;0.88;;
39792;SDS011;26080;42.264;24.536;2022-10-16T02:39:51;1.45;;;1.08;;
39792;SDS011;26080;42.264;24.536;2022-10-16T02:42:18;2.20;;;1.08;;
39792;SDS011;26080;42.264;24.536;2022-10-16T02:44:44;2.13;;;1.88;;
39792;SDS011;26080;42.264;24.536;2022-10-16T02:47:09;4.22;;;1.83;;
39792;SDS011;26080;42.264;24.536;2022-10-16T02:49:34;1.95;;;0.70;;
39792;SDS011;26080;42.264;24.536;2022-10-16T02:52:00;1.73;;;0.95;;
39792;SDS011;26080;42.264;24.536;2022-10-16T02:54:25;1.75;;;1.38;;
39792;SDS011;26080;42.264;24.536;2022-10-16T02:56:51;1.20;;;1.08;;
39792;SDS011;26080;42.264;24.536;2022-10-16T02:59:16;2.80;;;0.70;;
39792;SDS011;26080;42.264;24.536;2022-10-16T03:01:42;1.80;;;1.27;;
39792;SDS011;26080;42.264;24.536;2022-10-16T03:04:07;1.98;;;1.23;;
39792;SDS011;26080;42.264;24.536;2022-10-16T03:06:33;1.80;;;1.50;;
39792;SDS011;26080;42.264;24.536;2022-10-16T03:08:59;1.35;;;0.93;;
39792;SDS011;26080;42.264;24.536;2022-10-16T03:11:25;3.03;;;1.67;;
39792;SDS011;26080;42.264;24.536;2022-10-16T03:13:51;3.47;;;1.42;;
39792;SDS011;26080;42.264;24.536;2022-10-16T03:16:17;0.60;;;0.50;;
39792;SDS011;26080;42.264;24.536;2022-10-16T03:18:42;0.90;;;0.70;;
39792;SDS011;26080;42.264;24.536;2022-10-16T03:21:08;0.47;;;0.47;;
39792;SDS011;26080;42.264;24.536;2022-10-16T03:23:33;2.13;;;1.08;;
39792;SDS011;26080;42.264;24.536;2022-10-16T03:25:59;0.70;;;0.70;;
39792;SDS011;26080;42.264;24.536;2022-10-16T03:28:24;1.02;;;0.77;;
39792;SDS011;26080;42.264;24.536;2022-10-16T03:30:50;0.55;;;0.52;;
39792;SDS011;26080;42.264;24.536;2022-10-16T03:33:15;1.60;;;1.08;;
39792;SDS011;26080;42.264;24.536;2022-10-16T03:35:41;1.92;;;1.17;;
39792;SDS011;26080;42.264;24.536;2022-10-16T03:38:06;1.85;;;1.08;;
39792;SDS011;26080;42.264;24.536;2022-10-16T03:40:32;1.80;;;1.30;;
39792;SDS011;26080;42.264;24.536;2022-10-16T03:42:57;1.85;;;1.23;;
39792;SDS011;26080;42.264;24.536;2022-10-16T03:45:23;4.53;;;1.48;;
39792;SDS011;26080;42.264;24.536;2022-10-16T03:47:49;0.85;;;0.80;;
39792;SDS011;26080;42.264;24.536;2022-10-16T03:50:15;1.55;;;1.30;;
39792;SDS011;26080;42.264;24.536;2022-10-16T03:52:40;1.23;;;1.13;;
39792;SDS011;26080;42.264;24.536;2022-10-16T03:55:06;2.17;;;1.30;;
39792;SDS011;26080;42.264;24.536;2022-10-16T03:57:32;1.52;;;1.42;;
39792;SDS011;26080;42.264;24.536;2022-10-16T03:59:58;2.15;;;1.88;;
39792;SDS011;26080;42.264;24.536;2022-10-16T04:02:23;6.00;;;2.97;;
39792;SDS011;26080;42.264;24.536;2022-10-16T04:04:48;7.43;;;3.75;;
39792;SDS011;26080;42.264;24.536;2022-10-16T04:07:14;5.72;;;1.10;;
39792;SDS011;26080;42.264;24.536;2022-10-16T04:09:39;3.88;;;2.53;;
39792;SDS011;26080;42.264;24.536;2022-10-16T04:12:05;2.38;;;1.15;;
39792;SDS011;26080;42.264;24.536;2022-10-16T04:14:30;3.45;;;2.28;;
39792;SDS011;26080;42.264;24.536;2022-10-16T04:16:56;1.55;;;1.42;;
39792;SDS011;26080;42.264;24.536;2022-10-16T04:19:21;0.85;;;0.73;;
39792;SDS011;26080;42.264;24.536;2022-10-16T04:21:46;4.63;;;2.28;;
39792;SDS011;26080;42.264;24.536;2022-10-16T04:24:12;3.38;;;1.20;;
39792;SDS011;26080;42.264;24.536;2022-10-16T04:26:37;3.58;;;1.17;;
39792;SDS011;26080;42.264;24.536;2022-10-16T04:29:03;2.90;;;1.15;;
39792;SDS011;26080;42.264;24.536;2022-10-16T04:31:29;1.42;;;0.75;;
39792;SDS011;26080;42.264;24.536;2022-10-16T04:33:54;8.45;;;3.55;;
39792;SDS011;26080;42.264;24.536;2022-10-16T04:36:20;4.80;;;2.10;;
39792;SDS011;26080;42.264;24.536;2022-10-16T04:38:45;6.22;;;1.92;;
39792;SDS011;26080;42.264;24.536;2022-10-16T04:41:11;5.25;;;2.88;;
39792;SDS011;26080;42.264;24.536;2022-10-16T04:43:36;2.75;;;1.80;;
39792;SDS011;26080;42.264;24.536;2022-10-16T04:46:01;4.28;;;1.88;;
39792;SDS011;26080;42.264;24.536;2022-10-16T04:48:30;7.85;;;2.67;;
39792;SDS011;26080;42.264;24.536;2022-10-16T04:50:58;2.88;;;1.70;;
39792;SDS011;26080;42.264;24.536;2022-10-16T04:53:24;3.08;;;2.25;;
39792;SDS011;26080;42.264;24.536;2022-10-16T04:55:49;2.08;;;1.88;;
39792;SDS011;26080;42.264;24.536;2022-10-16T04:58:15;2.38;;;1.52;;
39792;SDS011;26080;42.264;24.536;2022-10-16T05:00:41;0.85;;;0.77;;
39792;SDS011;26080;42.264;24.536;2022-10-16T05:03:07;5.93;;;2.95;;
39792;SDS011;26080;42.264;24.536;2022-10-16T05:05:34;6.88;;;2.70;;
39792;SDS011;26080;42.264;24.536;2022-10-16T05:08:00;3.80;;;2.85;;
39792;SDS011;26080;42.264;24.536;2022-10-16T05:10:25;2.00;;;1.88;;
39792;SDS011;26080;42.264;24.536;2022-10-16T05:12:51;12.25;;;2.22;;
39792;SDS011;26080;42.264;24.536;2022-10-16T05:15:16;0.98;;;0.90;;
39792;SDS011;26080;42.264;24.536;2022-10-16T05:17:43;1.08;;;1.05;;
39792;SDS011;26080;42.264;24.536;2022-10-16T05:20:09;1.50;;;1.40;;
39792;SDS011;26080;42.264;24.536;2022-10-16T05:22:34;3.80;;;2.08;;
39792;SDS011;26080;42.264;24.536;2022-10-16T05:25:00;1.02;;;1.00;;
39792;SDS011;26080;42.264;24.536;2022-10-16T05:27:28;1.50;;;1.05;;
39792;SDS011;26080;42.264;24.536;2022-10-16T05:29:53;3.13;;;1.77;;
39792;SDS011;26080;42.264;24.536;2022-10-16T05:32:19;1.92;;;1.83;;
39792;SDS011;26080;42.264;24.536;2022-10-16T05:34:44;2.03;;;1.48;;
39792;SDS011;26080;42.264;24.536;2022-10-16T05:37:10;1.60;;;0.95;;
39792;SDS011;26080;42.264;24.536;2022-10-16T05:39:37;0.95;;;0.88;;
39792;SDS011;26080;42.264;24.536;2022-10-16T05:42:03;0.85;;;0.55;;
39792;SDS011;26080;42.264;24.536;2022-10-16T05:44:29;2.75;;;1.95;;
39792;SDS011;26080;42.264;24.536;2022-10-16T05:46:54;9.00;;;1.23;;
39792;SDS011;26080;42.264;24.536;2022-10-16T05:49:20;0.75;;;0.63;;
39792;SDS011;26080;42.264;24.536;2022-10-16T05:51:45;1.98;;;0.82;;
39792;SDS011;26080;42.264;24.536;2022-10-16T05:54:11;0.60;;;0.60;;
39792;SDS011;26080;42.264;24.536;2022-10-16T05:56:36;2.00;;;1.08;;
39792;SDS011;26080;42.264;24.536;2022-10-16T05:59:03;1.67;;;1.52;;
39792;SDS011;26080;42.264;24.536;2022-10-16T06:01:29;1.33;;;1.10;;
39792;SDS011;26080;42.264;24.536;2022-10-16T06:03:55;1.50;;;1.15;;
39792;SDS011;26080;42.264;24.536;2022-10-16T06:06:22;2.53;;;0.90;;
39792;SDS011;26080;42.264;24.536;2022-10-16T06:08:51;2.08;;;1.55;;
39792;SDS011;26080;42.264;24.536;2022-10-16T06:11:18;2.58;;;1.70;;
39792;SDS011;26080;42.264;24.536;2022-10-16T06:13:51;1.50;;;0.88;;
39792;SDS011;26080;42.264;24.536;2022-10-16T06:16:17;5.80;;;3.40;;
39792;SDS011;26080;42.264;24.536;2022-10-16T06:18:43;1.08;;;1.08;;
39792;SDS011;26080;42.264;24.536;2022-10-16T06:21:12;4.53;;;0.95;;
39792;SDS011;26080;42.264;24.536;2022-10-16T06:23:41;1.35;;;1.00;;
39792;SDS011;26080;42.264;24.536;2022-10-16T06:26:08;1.50;;;1.30;;
39792;SDS011;26080;42.264;24.536;2022-10-16T06:28:35;4.65;;;2.63;;
39792;SDS011;26080;42.264;24.536;2022-10-16T06:31:01;1.15;;;0.93;;
39792;SDS011;26080;42.264;24.536;2022-10-16T06:33:27;1.83;;;1.13;;
39792;SDS011;26080;42.264;24.536;2022-10-16T06:35:53;1.20;;;0.85;;
39792;SDS011;26080;42.264;24.536;2022-10-16T06:38:18;2.08;;;1.80;;
39792;SDS011;26080;42.264;24.536;2022-10-16T06:40:44;0.45;;;0.45;;
39792;SDS011;26080;42.264;24.536;2022-10-16T06:43:09;0.55;;;0.47;;
39792;SDS011;26080;42.264;24.536;2022-10-16T06:45:34;2.63;;;1.60;;
39792;SDS011;26080;42.264;24.536;2022-10-16T06:48:00;2.25;;;0.88;;
39792;SDS011;26080;42.264;24.536;2022-10-16T06:50:25;1.85;;;1.42;;
39792;SDS011;26080;42.264;24.536;2022-10-16T06:52:50;3.40;;;2.25;;
39792;SDS011;26080;42.264;24.536;2022-10-16T06:55:16;1.65;;;0.85;;
39792;SDS011;26080;42.264;24.536;2022-10-16T06:57:42;1.55;;;1.45;;
39792;SDS011;26080;42.264;24.536;2022-10-16T07:00:08;3.20;;;1.63;;
39792;SDS011;26080;42.264;24.536;2022-10-16T07:02:34;11.88;;;2.03;;
39792;SDS011;26080;42.264;24.536;2022-10-16T07:04:59;1.92;;;1.35;;
39792;SDS011;26080;42.264;24.536;2022-10-16T07:07:25;3.05;;;1.25;;
39792;SDS011;26080;42.264;24.536;2022-10-16T07:09:51;2.42;;;1.48;;
39792;SDS011;26080;42.264;24.536;2022-10-16T07:12:17;6.03;;;2.08;;
39792;SDS011;26080;42.264;24.536;2022-10-16T07:14:42;1.25;;;0.98;;
39792;SDS011;26080;42.264;24.536;2022-10-16T07:17:08;0.80;;;0.70;;
39792;SDS011;26080;42.264;24.536;2022-10-16T07:19:33;2.85;;;1.95;;
39792;SDS011;26080;42.264;24.536;2022-10-16T07:21:59;0.65;;;0.63;;
39792;SDS011;26080;42.264;24.536;2022-10-16T07:24:24;1.88;;;0.95;;
39792;SDS011;26080;42.264;24.536;2022-10-16T07:26:50;0.55;;;0.55;;
39792;SDS011;26080;42.264;24.536;2022-10-16T07:29:19;7.82;;;1.92;;
39792;SDS011;26080;42.264;24.536;2022-10-16T07:31:46;1.17;;;0.65;;
39792;SDS011;26080;42.264;24.536;2022-10-16T07:34:13;4.78;;;1.45;;
39792;SDS011;26080;42.264;24.536;2022-10-16T07:36:40;1.08;;;0.77;;
39792;SDS011;26080;42.264;24.536;2022-10-16T07:39:05;1.23;;;1.10;;
39792;SDS011;26080;42.264;24.536;2022-10-16T07:41:31;1.88;;;1.17;;
39792;SDS011;26080;42.264;24.536;2022-10-16T07:43:57;0.82;;;0.70;;
39792;SDS011;26080;42.264;24.536;2022-10-16T07:46:25;3.03;;;1.70;;
39792;SDS011;26080;42.264;24.536;2022-10-16T07:48:51;3.03;;;1.35;;
39792;SDS011;26080;42.264;24.536;2022-10-16T07:51:19;3.65;;;1.65;;
39792;SDS011;26080;42.264;24.536;2022-10-16T07:53:46;1.60;;;1.30;;
39792;SDS011;26080;42.264;24.536;2022-10-16T07:56:12;1.33;;;1.15;;
39792;SDS011;26080;42.264;24.536;2022-10-16T07:58:37;2.13;;;1.20;;
39792;SDS011;26080;42.264;24.536;2022-10-16T08:01:04;1.10;;;0.77;;
39792;SDS011;26080;42.264;24.536;2022-10-16T08:03:31;3.17;;;1.42;;
39792;SDS011;26080;42.264;24.536;2022-10-16T08:05:57;1.20;;;1.10;;
39792;SDS011;26080;42.264;24.536;2022-10-16T08:08:22;1.85;;;1.40;;
39792;SDS011;26080;42.264;24.536;2022-10-16T08:10:48;1.77;;;1.02;;
39792;SDS011;26080;42.264;24.536;2022-10-16T08:13:14;2.65;;;1.50;;
39792;SDS011;26080;42.264;24.536;2022-10-16T08:15:40;1.05;;;0.95;;
39792;SDS011;26080;42.264;24.536;2022-10-16T08:18:07;1.38;;;1.02;;
39792;SDS011;26080;42.264;24.536;2022-10-16T08:20:32;3.28;;;2.00;;
39792;SDS011;26080;42.264;24.536;2022-10-16T08:22:58;1.73;;;1.63;;
39792;SDS011;26080;42.264;24.536;2022-10-16T08:25:24;1.92;;;1.30;;
39792;SDS011;26080;42.264;24.536;2022-10-16T08:27:50;2.83;;;1.50;;
39792;SDS011;26080;42.264;24.536;2022-10-16T08:30:20;10.15;;;1.50;;
39792;SDS011;26080;42.264;24.536;2022-10-16T08:32:46;2.50;;;0.95;;
39792;SDS011;26080;42.264;24.536;2022-10-16T08:35:12;2.72;;;1.50;;
39792;SDS011;26080;42.264;24.536;2022-10-16T08:37:40;1.92;;;1.20;;
39792;SDS011;26080;42.264;24.536;2022-10-16T08:40:06;2.58;;;1.45;;
39792;SDS011;26080;42.264;24.536;2022-10-16T08:50:57;0.82;;;0.82;;
39792;SDS011;26080;42.264;24.536;2022-10-16T08:53:27;1.15;;;0.98;;
39792;SDS011;26080;42.264;24.536;2022-10-16T08:56:01;0.70;;;0.70;;
39792;SDS011;26080;42.264;24.536;2022-10-16T08:58:27;1.38;;;1.23;;
39792;SDS011;26080;42.264;24.536;2022-10-16T09:01:01;4.43;;;1.75;;
39792;SDS011;26080;42.264;24.536;2022-10-16T09:19:36;3.65;;;2.13;;
39792;SDS011;26080;42.264;24.536;2022-10-16T09:22:10;0.50;;;0.50;;
39792;SDS011;26080;42.264;24.536;2022-10-16T09:24:42;1.40;;;1.30;;
39792;SDS011;26080;42.264;24.536;2022-10-16T09:27:11;0.82;;;0.70;;
39792;SDS011;26080;42.264;24.536;2022-10-16T09:29:38;1.67;;;1.13;;
39792;SDS011;26080;42.264;24.536;2022-10-16T09:32:09;2.67;;;0.90;;
39792;SDS011;26080;42.264;24.536;2022-10-16T09:34:39;1.52;;;1.05;;
39792;SDS011;26080;42.264;24.536;2022-10-16T09:37:10;6.97;;;1.73;;
39792;SDS011;26080;42.264;24.536;2022-10-16T09:39:45;1.02;;;0.63;;
39792;SDS011;26080;42.264;24.536;2022-10-16T09:42:31;0.90;;;0.88;;
39792;SDS011;26080;42.264;24.536;2022-10-16T09:45:00;1.37;;;1.17;;
39792;SDS011;26080;42.264;24.536;2022-10-16T09:47:26;1.30;;;1.17;;
39792;SDS011;26080;42.264;24.536;2022-10-16T09:50:01;7.68;;;1.02;;
39792;SDS011;26080;42.264;24.536;2022-10-16T09:52:44;1.40;;;0.93;;
39792;SDS011;26080;42.264;24.536;2022-10-16T09:55:17;1.63;;;1.00;;
39792;SDS011;26080;42.264;24.536;2022-10-16T09:57:50;2.40;;;1.15;;
39792;SDS011;26080;42.264;24.536;2022-10-16T10:00:16;1.85;;;0.73;;
39792;SDS011;26080;42.264;24.536;2022-10-16T10:02:43;2.08;;;0.75;;
39792;SDS011;26080;42.264;24.536;2022-10-16T10:05:20;4.22;;;1.05;;
39792;SDS011;26080;42.264;24.536;2022-10-16T10:07:53;1.02;;;0.90;;
39792;SDS011;26080;42.264;24.536;2022-10-16T10:10:22;1.00;;;0.90;;
39792;SDS011;26080;42.264;24.536;2022-10-16T10:12:52;1.95;;;0.95;;
39792;SDS011;26080;42.264;24.536;2022-10-16T10:15:18;0.82;;;0.82;;
39792;SDS011;26080;42.264;24.536;2022-10-16T10:17:47;1.55;;;0.88;;
39792;SDS011;26080;42.264;24.536;2022-10-16T10:20:21;1.15;;;1.05;;
39792;SDS011;26080;42.264;24.536;2022-10-16T10:22:55;1.75;;;0.82;;
39792;SDS011;26080;42.264;24.536;2022-10-16T10:46:18;0.85;;;0.77;;
39792;SDS011;26080;42.264;24.536;2022-10-16T10:49:14;1.38;;;0.80;;
39792;SDS011;26080;42.264;24.536;2022-10-16T10:56:59;1.40;;;0.50;;
39792;SDS011;26080;42.264;24.536;2022-10-16T11:02:01;0.63;;;0.63;;
39792;SDS011;26080;42.264;24.536;2022-10-16T11:07:33;0.98;;;0.80;;
39792;SDS011;26080;42.264;24.536;2022-10-16T11:10:05;2.30;;;1.60;;
39792;SDS011;26080;42.264;24.536;2022-10-16T11:12:42;1.23;;;0.90;;
39792;SDS011;26080;42.264;24.536;2022-10-16T11:15:23;13.75;;;0.98;;
39792;SDS011;26080;42.264;24.536;2022-10-16T11:17:56;0.30;;;0.30;;
39792;SDS011;26080;42.264;24.536;2022-10-16T11:21:12;0.73;;;0.73;;
39792;SDS011;26080;42.264;24.536;2022-10-16T11:23:28;11.88;;;1.60;;
39792;SDS011;26080;42.264;24.536;2022-10-16T11:26:01;0.63;;;0.60;;
39792;SDS011;26080;42.264;24.536;2022-10-16T11:31:10;0.73;;;0.70;;
39792;SDS011;26080;42.264;24.536;2022-10-16T11:33:44;2.28;;;0.50;;
39792;SDS011;26080;42.264;24.536;2022-10-16T11:41:50;2.33;;;0.80;;
39792;SDS011;26080;42.264;24.536;2022-10-16T11:49:56;1.17;;;0.93;;
39792;SDS011;26080;42.264;24.536;2022-10-16T11:54:58;1.70;;;0.82;;
39792;SDS011;26080;42.264;24.536;2022-10-16T11:57:38;1.23;;;1.08;;
39792;SDS011;26080;42.264;24.536;2022-10-16T12:05:58;1.05;;;0.95;;
39792;SDS011;26080;42.264;24.536;2022-10-16T12:08:45;0.40;;;0.40;;
39792;SDS011;26080;42.264;24.536;2022-10-16T12:16:37;1.13;;;0.50;;
39792;SDS011;26080;42.264;24.536;2022-10-16T12:19:24;1.05;;;0.80;;
39792;SDS011;26080;42.264;24.536;2022-10-16T12:21:52;0.40;;;0.40;;
39792;SDS011;26080;42.264;24.536;2022-10-16T12:24:21;0.68;;;0.63;;
39792;SDS011;26080;42.264;24.536;2022-10-16T12:26:54;0.80;;;0.60;;
39792;SDS011;26080;42.264;24.536;2022-10-16T12:29:32;0.35;;;0.35;;
39792;SDS011;26080;42.264;24.536;2022-10-16T12:31:58;0.98;;;0.70;;
39792;SDS011;26080;42.264;24.536;2022-10-16T12:37:07;0.50;;;0.50;;
39792;SDS011;26080;42.264;24.536;2022-10-16T12:39:56;0.57;;;0.50;;
39792;SDS011;26080;42.264;24.536;2022-10-16T12:42:30;0.95;;;0.63;;
39792;SDS011;26080;42.264;24.536;2022-10-16T12:44:58;0.85;;;0.68;;
39792;SDS011;26080;42.264;24.536;2022-10-16T12:49:55;0.63;;;0.45;;
39792;SDS011;26080;42.264;24.536;2022-10-16T12:52:29;0.43;;;0.43;;
39792;SDS011;26080;42.264;24.536;2022-10-16T12:55:01;1.63;;;0.85;;
39792;SDS011;26080;42.264;24.536;2022-10-16T13:05:22;1.08;;;0.60;;
39792;SDS011;26080;42.264;24.536;2022-10-16T13:16:23;2.17;;;1.52;;
39792;SDS011;26080;42.264;24.536;2022-10-16T13:19:01;4.40;;;1.73;;
39792;SDS011;26080;42.264;24.536;2022-10-16T13:30:00;5.13;;;1.60;;
39792;SDS011;26080;42.264;24.536;2022-10-16T13:32:35;31.63;;;2.25;;
39792;SDS011;26080;42.264;24.536;2022-10-16T13:35:01;2.42;;;1.42;;
39792;SDS011;26080;42.264;24.536;2022-10-16T13:37:29;3.80;;;1.90;;
39792;SDS011;26080;42.264;24.536;2022-10-16T13:40:09;4.22;;;1.92;;
39792;SDS011;26080;42.264;24.536;2022-10-16T13:42:43;3.30;;;1.27;;
39792;SDS011;26080;42.264;24.536;2022-10-16T13:45:23;3.00;;;1.20;;
39792;SDS011;26080;42.264;24.536;2022-10-16T13:48:00;4.60;;;1.83;;
39792;SDS011;26080;42.264;24.536;2022-10-16T13:50:27;4.28;;;1.90;;
39792;SDS011;26080;42.264;24.536;2022-10-16T13:53:02;1.35;;;1.23;;
39792;SDS011;26080;42.264;24.536;2022-10-16T13:55:31;1.90;;;0.90;;
39792;SDS011;26080;42.264;24.536;2022-10-16T14:00:59;1.33;;;1.08;;
39792;SDS011;26080;42.264;24.536;2022-10-16T14:03:27;1.50;;;1.05;;
39792;SDS011;26080;42.264;24.536;2022-10-16T14:05:56;1.55;;;0.90;;
39792;SDS011;26080;42.264;24.536;2022-10-16T14:08:24;0.40;;;0.40;;
39792;SDS011;26080;42.264;24.536;2022-10-16T14:10:53;1.73;;;1.35;;
39792;SDS011;26080;42.264;24.536;2022-10-16T14:13:24;2.25;;;0.90;;
39792;SDS011;26080;42.264;24.536;2022-10-16T14:15:56;3.15;;;0.95;;
39792;SDS011;26080;42.264;24.536;2022-10-16T14:18:24;1.35;;;1.25;;
39792;SDS011;26080;42.264;24.536;2022-10-16T14:20:51;1.02;;;0.93;;
39792;SDS011;26080;42.264;24.536;2022-10-16T14:23:28;1.40;;;1.10;;
39792;SDS011;26080;42.264;24.536;2022-10-16T14:29:04;1.63;;;0.93;;
39792;SDS011;26080;42.264;24.536;2022-10-16T14:31:42;0.73;;;0.73;;
39792;SDS011;26080;42.264;24.536;2022-10-16T14:34:25;5.55;;;1.30;;
39792;SDS011;26080;42.264;24.536;2022-10-16T14:37:24;8.45;;;1.40;;
39792;SDS011;26080;42.264;24.536;2022-10-16T14:39:52;1.17;;;0.63;;
39792;SDS011;26080;42.264;24.536;2022-10-16T14:42:19;0.52;;;0.50;;
39792;SDS011;26080;42.264;24.536;2022-10-16T14:44:48;4.30;;;0.68;;
39792;SDS011;26080;42.264;24.536;2022-10-16T14:47:18;2.05;;;0.70;;
39792;SDS011;26080;42.264;24.536;2022-10-16T14:49:49;0.50;;;0.50;;
39792;SDS011;26080;42.264;24.536;2022-10-16T14:52:14;4.68;;;0.70;;
39792;SDS011;26080;42.264;24.536;2022-10-16T14:54:40;2.50;;;0.88;;
39792;SDS011;26080;42.264;24.536;2022-10-16T14:57:13;3.30;;;1.73;;
39792;SDS011;26080;42.264;24.536;2022-10-16T14:59:42;0.90;;;0.80;;
39792;SDS011;26080;42.264;24.536;2022-10-16T15:04:46;1.98;;;0.82;;
39792;SDS011;26080;42.264;24.536;2022-10-16T15:07:11;13.80;;;2.97;;
39792;SDS011;26080;42.264;24.536;2022-10-16T15:09:37;2.80;;;1.52;;
39792;SDS011;26080;42.264;24.536;2022-10-16T15:12:03;2.92;;;1.52;;
39792;SDS011;26080;42.264;24.536;2022-10-16T15:14:28;1.70;;;0.82;;
39792;SDS011;26080;42.264;24.536;2022-10-16T15:16:53;2.05;;;1.27;;
39792;SDS011;26080;42.264;24.536;2022-10-16T15:19:19;2.75;;;0.93;;
39792;SDS011;26080;42.264;24.536;2022-10-16T15:21:44;1.25;;;0.95;;
39792;SDS011;26080;42.264;24.536;2022-10-16T15:24:13;8.40;;;1.83;;
39792;SDS011;26080;42.264;24.536;2022-10-16T15:26:39;1.90;;;1.10;;
39792;SDS011;26080;42.264;24.536;2022-10-16T15:29:05;1.85;;;0.82;;
39792;SDS011;26080;42.264;24.536;2022-10-16T15:31:31;2.28;;;1.92;;
39792;SDS011;26080;42.264;24.536;2022-10-16T15:33:57;1.63;;;1.20;;
39792;SDS011;26080;42.264;24.536;2022-10-16T15:36:33;1.35;;;1.08;;
39792;SDS011;26080;42.264;24.536;2022-10-16T15:39:02;1.15;;;1.05;;
39792;SDS011;26080;42.264;24.536;2022-10-16T15:41:36;4.13;;;1.42;;
39792;SDS011;26080;42.264;24.536;2022-10-16T15:44:02;2.38;;;1.17;;
39792;SDS011;26080;42.264;24.536;2022-10-16T15:46:27;3.60;;;1.70;;
39792;SDS011;26080;42.264;24.536;2022-10-16T15:48:56;5.32;;;1.80;;
39792;SDS011;26080;42.264;24.536;2022-10-16T15:51:22;0.65;;;0.60;;
39792;SDS011;26080;42.264;24.536;2022-10-16T15:53:48;0.85;;;0.68;;
39792;SDS011;26080;42.264;24.536;2022-10-16T15:56:13;1.80;;;1.13;;
39792;SDS011;26080;42.264;24.536;2022-10-16T15:58:40;1.50;;;1.40;;
39792;SDS011;26080;42.264;24.536;2022-10-16T16:01:07;1.38;;;0.95;;
39792;SDS011;26080;42.264;24.536;2022-10-16T16:03:35;2.13;;;1.20;;
39792;SDS011;26080;42.264;24.536;2022-10-16T16:06:04;3.22;;;1.73;;
39792;SDS011;26080;42.264;24.536;2022-10-16T16:08:34;2.95;;;1.73;;
39792;SDS011;26080;42.264;24.536;2022-10-16T16:11:06;5.43;;;2.15;;
39792;SDS011;26080;42.264;24.536;2022-10-16T16:13:33;2.15;;;1.70;;
39792;SDS011;26080;42.264;24.536;2022-10-16T16:15:59;2.28;;;1.63;;
39792;SDS011;26080;42.264;24.536;2022-10-16T16:18:25;6.50;;;2.08;;
39792;SDS011;26080;42.264;24.536;2022-10-16T16:20:51;5.53;;;1.77;;
39792;SDS011;26080;42.264;24.536;2022-10-16T16:23:17;3.88;;;2.42;;
39792;SDS011;26080;42.264;24.536;2022-10-16T16:25:44;3.47;;;2.20;;
39792;SDS011;26080;42.264;24.536;2022-10-16T16:28:09;11.13;;;5.57;;
39792;SDS011;26080;42.264;24.536;2022-10-16T16:30:39;7.53;;;4.47;;
39792;SDS011;26080;42.264;24.536;2022-10-16T16:33:05;6.00;;;3.70;;
39792;SDS011;26080;42.264;24.536;2022-10-16T16:35:30;8.60;;;4.50;;
39792;SDS011;26080;42.264;24.536;2022-10-16T16:37:55;3.67;;;2.80;;
39792;SDS011;26080;42.264;24.536;2022-10-16T16:40:21;6.72;;;2.63;;
39792;SDS011;26080;42.264;24.536;2022-10-16T16:42:47;11.95;;;5.00;;
39792;SDS011;26080;42.264;24.536;2022-10-16T16:45:13;5.85;;;3.85;;
39792;SDS011;26080;42.264;24.536;2022-10-16T16:47:39;3.75;;;2.90;;
39792;SDS011;26080;42.264;24.536;2022-10-16T16:50:04;7.43;;;4.03;;
39792;SDS011;26080;42.264;24.536;2022-10-16T16:52:31;7.35;;;3.75;;
39792;SDS011;26080;42.264;24.536;2022-10-16T16:54:57;14.25;;;3.95;;
39792;SDS011;26080;42.264;24.536;2022-10-16T16:57:22;15.15;;;3.92;;
39792;SDS011;26080;42.264;24.536;2022-10-16T16:59:49;4.45;;;2.60;;
39792;SDS011;26080;42.264;24.536;2022-10-16T17:02:16;8.18;;;3.47;;
39792;SDS011;26080;42.264;24.536;2022-10-16T17:04:42;7.07;;;3.70;;